createdAt,value
2019-02-07T00:06:09.971Z,2.90
2019-02-07T00:16:15.432Z,2.90
2019-02-07T00:26:21.023Z,3.10
2019-02-07T00:36:26.554Z,2.87
2019-02-07T00:46:31.967Z,3.03
2019-02-07T00:56:39.760Z,2.80
2019-02-07T01:06:44.681Z,2.80
2019-02-07T01:16:50.022Z,3.07
2019-02-07T01:26:55.656Z,2.80
2019-02-07T01:37:01.007Z,3.20
2019-02-07T01:47:06.325Z,2.80
2019-02-07T01:57:13.561Z,3.23
2019-02-07T02:07:19.242Z,2.87
2019-02-07T02:17:24.569Z,3.40
2019-02-07T02:27:30.011Z,2.90
2019-02-07T02:37:35.655Z,2.73
2019-02-07T02:47:41.095Z,2.80
2019-02-07T02:57:46.916Z,3.07
2019-02-07T03:08:12.694Z,2.77
2019-02-07T03:18:37.097Z,3.00
2019-02-07T03:29:01.200Z,2.50
2019-02-07T03:39:17.121Z,2.63
2019-02-07T03:49:32.596Z,2.87
2019-02-07T04:00:03.152Z,2.70
2019-02-07T04:10:21.651Z,2.77
2019-02-07T04:20:44.314Z,3.10
2019-02-07T04:31:08.022Z,2.77
2019-02-07T04:41:43.260Z,3.13
2019-02-07T04:52:20.056Z,2.90
2019-02-07T05:02:50.642Z,2.90
2019-02-07T05:13:17.523Z,2.90
2019-02-07T05:23:39.615Z,3.03
2019-02-07T05:33:58.333Z,2.70
2019-02-07T05:44:10.828Z,2.50
2019-02-07T05:54:28.190Z,3.00
2019-02-07T06:04:51.359Z,2.53
2019-02-07T06:15:14.539Z,2.70
2019-02-07T06:25:57.320Z,3.00
2019-02-07T06:36:40.092Z,2.67
2019-02-07T06:47:13.008Z,2.80
2019-02-07T06:57:27.640Z,2.83
2019-02-07T07:07:50.460Z,2.80
2019-02-07T07:18:04.515Z,3.07
2019-02-07T07:28:31.640Z,3.00
2019-02-07T07:38:51.952Z,2.67
2019-02-07T07:49:34.343Z,3.00
2019-02-07T07:59:57.498Z,2.70
2019-02-07T08:10:17.028Z,2.80
2019-02-07T08:20:50.714Z,2.90
2019-02-07T08:31:17.920Z,2.60
2019-02-07T08:41:47.237Z,2.73
2019-02-07T08:52:10.636Z,2.50
2019-02-07T09:02:38.019Z,2.70
2019-02-07T09:13:02.337Z,2.80
2019-02-07T09:23:35.579Z,2.50
2019-02-07T09:33:55.484Z,2.50
2019-02-07T09:44:29.135Z,2.50
2019-02-07T09:54:59.132Z,2.70
2019-02-07T10:05:23.697Z,2.70
2019-02-07T10:15:48.718Z,2.77
2019-02-07T10:26:25.478Z,2.80
2019-02-07T10:36:46.082Z,2.77
2019-02-07T10:47:09.085Z,2.60
2019-02-07T10:57:33.428Z,2.97
2019-02-07T11:07:56.296Z,2.83
2019-02-07T11:18:22.034Z,2.70
2019-02-07T11:28:58.508Z,2.60
2019-02-07T11:39:30.492Z,2.63
2019-02-07T11:49:56.187Z,3.10
2019-02-07T12:00:16.863Z,3.00
2019-02-07T12:10:40.612Z,2.77
2019-02-07T12:21:08.213Z,3.10
2019-02-07T12:31:44.716Z,3.00
2019-02-07T12:42:11.856Z,3.10
2019-02-07T12:52:48.682Z,2.97
2019-02-07T13:03:15.688Z,2.80
2019-02-07T13:13:49.127Z,3.20
2019-02-07T13:24:14.806Z,3.17
2019-02-07T13:34:37.981Z,3.10
2019-02-07T13:45:00.906Z,3.20
2019-02-07T13:55:40.023Z,3.10
2019-02-07T14:06:10.059Z,3.03
2019-02-07T14:16:33.210Z,3.10
2019-02-07T14:27:03.497Z,3.30
2019-02-07T14:37:28.017Z,3.10
2019-02-07T14:47:33.509Z,3.07
2019-02-07T14:57:38.809Z,3.27
2019-02-07T15:07:44.121Z,3.30
2019-02-07T15:17:50.059Z,2.90
2019-02-07T15:27:55.378Z,3.10
2019-02-07T15:38:00.689Z,3.20
2019-02-07T15:48:05.996Z,3.20
2019-02-07T15:58:12.364Z,3.40
2019-02-07T16:08:19.586Z,3.00
2019-02-07T16:18:24.911Z,3.33
2019-02-07T16:28:30.499Z,3.20
2019-02-07T16:38:35.904Z,3.27
2019-02-07T16:48:42.944Z,3.37
2019-02-07T16:58:49.762Z,3.10
2019-02-07T17:08:55.286Z,3.20
2019-02-07T17:19:00.736Z,3.30
2019-02-07T17:29:06.130Z,3.33
2019-02-07T17:39:13.453Z,3.57
2019-02-07T17:49:18.774Z,3.10
2019-02-07T17:59:24.756Z,3.50
2019-02-07T18:09:30.172Z,3.57
2019-02-07T18:19:35.873Z,3.37
2019-02-07T18:29:42.109Z,3.40
2019-02-07T18:39:47.658Z,3.20
2019-02-07T18:49:52.990Z,3.70
2019-02-07T18:59:58.375Z,3.43
2019-02-07T19:10:04.462Z,3.50
2019-02-07T19:20:14.003Z,3.40
2019-02-07T19:30:26.676Z,2.90
2019-02-07T19:40:32.028Z,3.17
2019-02-07T19:50:37.534Z,3.20
2019-02-07T20:00:42.994Z,3.10
2019-02-07T20:10:48.438Z,3.43
2019-02-07T20:20:53.765Z,3.30
2019-02-07T20:30:59.512Z,3.23
2019-02-07T20:41:06.710Z,2.93
2019-02-07T20:51:12.175Z,2.70
2019-02-07T21:01:17.492Z,2.83
2019-02-07T21:11:22.825Z,3.00
2019-02-07T21:21:28.205Z,3.03
2019-02-07T21:31:33.612Z,2.70
2019-02-07T21:41:39.003Z,2.90
2019-02-07T21:51:44.438Z,3.03
2019-02-07T22:01:49.874Z,2.47
2019-02-07T22:11:55.218Z,2.70
2019-02-07T22:22:00.829Z,2.73
2019-02-07T22:32:06.189Z,2.60
2019-02-07T22:42:11.506Z,2.37
2019-02-07T22:52:16.970Z,2.87
2019-02-07T23:02:22.263Z,2.67
2019-02-07T23:12:27.573Z,2.60
2019-02-07T23:22:33.012Z,2.37
2019-02-07T23:32:39.055Z,2.77
2019-02-07T23:42:44.437Z,2.53
2019-02-07T23:52:50.013Z,2.77
